Time;durP1;ratioP1;P1;durP2;ratioP2;P2;SDS_P1;SDS_P2;PMS_P1;PMS_P2;Temp;Humidity;BMP_temperature;BMP_pressure;BME280_temperature;BME280_humidity;BME280_pressure;Samples;Min_cycle;Max_cycle;Signal;HPM_P1;HPM_P2
2023/05/30 00:01:18;;;;;;;10.30;6.80;;;;;;;20.91;68.90;100190.09;107872;1290;22023;-71
2023/05/30 00:03:44;;;;;;;9.90;6.40;;;;;;;20.86;69.10;100193.05;107838;1279;21991;-62
2023/05/30 00:06:13;;;;;;;10.50;5.90;;;;;;;20.83;68.85;100197.55;107810;1287;21999;-61
2023/05/30 00:08:40;;;;;;;9.50;5.60;;;;;;;20.83;69.03;100198.42;107848;1280;21993;-61
2023/05/30 00:11:07;;;;;;;7.30;5.80;;;;;;;20.80;69.21;100196.08;107816;1281;21994;-61
2023/05/30 00:13:33;;;;;;;9.30;6.00;;;;;;;20.78;69.11;100196.37;107887;1287;22082;-61
2023/05/30 00:15:59;;;;;;;7.60;5.70;;;;;;;20.77;69.20;100194.12;107838;1284;21997;-70
2023/05/30 00:18:25;;;;;;;9.30;5.90;;;;;;;20.74;69.01;100191.03;107981;1284;21989;-61
2023/05/30 00:20:51;;;;;;;11.80;6.20;;;;;;;20.72;69.20;100194.38;107826;1290;22024;-61
2023/05/30 00:23:17;;;;;;;8.90;5.60;;;;;;;20.68;68.91;100190.70;107946;1283;21984;-62
2023/05/30 00:25:45;;;;;;;9.20;6.10;;;;;;;20.65;69.20;100189.42;107803;1287;21999;-71
2023/05/30 00:28:12;;;;;;;9.30;5.60;;;;;;;20.62;69.04;100189.21;107904;1284;22020;-70
2023/05/30 00:30:37;;;;;;;9.80;6.10;;;;;;;20.59;69.08;100191.16;107922;1286;21998;-69
2023/05/30 00:33:03;;;;;;;11.60;6.20;;;;;;;20.59;68.98;100192.10;107849;1290;22001;-70
2023/05/30 00:35:29;;;;;;;8.90;5.70;;;;;;;20.58;68.93;100188.91;107875;1284;21984;-70
2023/05/30 00:37:55;;;;;;;7.20;5.60;;;;;;;20.57;68.88;100184.34;107822;1290;22011;-61
2023/05/30 00:40:21;;;;;;;7.70;5.70;;;;;;;20.56;68.88;100186.02;107860;1290;22046;-62
2023/05/30 00:42:46;;;;;;;6.80;5.60;;;;;;;20.54;68.79;100186.86;107854;1277;21987;-60
2023/05/30 00:45:12;;;;;;;9.30;5.90;;;;;;;20.53;69.00;100185.85;107817;1283;21991;-60
2023/05/30 00:47:40;;;;;;;9.00;6.40;;;;;;;20.49;69.07;100184.26;107846;1284;22043;-61
2023/05/30 00:50:06;;;;;;;8.40;5.80;;;;;;;20.41;68.91;100182.24;107815;1286;21991;-70
2023/05/30 00:52:32;;;;;;;7.90;6.20;;;;;;;20.36;69.18;100182.69;107811;1289;22011;-61
2023/05/30 00:55:02;;;;;;;9.80;5.90;;;;;;;20.34;69.32;100181.52;107841;1290;21986;-61
2023/05/30 00:57:33;;;;;;;11.60;5.90;;;;;;;20.34;69.59;100182.95;107899;1284;21955;-69
2023/05/30 01:00:03;;;;;;;7.00;5.40;;;;;;;20.33;69.50;100183.02;107918;1290;22013;-61
2023/05/30 01:02:32;;;;;;;8.30;6.10;;;;;;;20.32;69.64;100180.59;107874;1290;21984;-69
2023/05/30 01:05:00;;;;;;;8.80;5.60;;;;;;;20.31;69.40;100181.70;107817;1280;21994;-61
2023/05/30 01:07:27;;;;;;;7.30;5.70;;;;;;;20.32;69.63;100188.96;107982;1277;22006;-61
2023/05/30 01:09:54;;;;;;;8.80;5.30;;;;;;;20.35;69.61;100187.88;107923;1287;22082;-61
2023/05/30 01:12:29;;;;;;;11.00;6.80;;;;;;;20.38;69.60;100193.06;107858;1289;22002;-61
2023/05/30 01:15:16;;;;;;;10.20;6.20;;;;;;;20.40;69.36;100193.86;107943;1290;21996;-61
2023/05/30 01:17:57;;;;;;;8.10;5.30;;;;;;;20.38;69.35;100193.98;107842;1284;22021;-61
2023/05/30 01:20:24;;;;;;;10.20;6.20;;;;;;;20.33;69.13;100192.44;107859;1287;21986;-69
2023/05/30 01:23:01;;;;;;;8.80;6.00;;;;;;;20.32;69.24;100193.05;107904;1281;22001;-69
2023/05/30 01:25:53;;;;;;;9.10;5.90;;;;;;;20.30;69.17;100191.21;107873;1290;21996;-69
2023/05/30 01:28:20;;;;;;;8.80;5.40;;;;;;;20.29;69.44;100190.90;107868;1283;21994;-69
2023/05/30 01:30:46;;;;;;;10.70;6.00;;;;;;;20.29;69.25;100192.71;107773;1289;21990;-61
2023/05/30 01:33:21;;;;;;;9.50;6.20;;;;;;;20.28;69.23;100193.09;107866;1284;21994;-61
2023/05/30 01:35:46;;;;;;;8.60;5.90;;;;;;;20.27;69.41;100190.84;107827;1290;22000;-61
2023/05/30 01:38:13;;;;;;;8.30;5.90;;;;;;;20.24;69.35;100184.80;107838;1283;21998;-61
2023/05/30 01:40:40;;;;;;;7.20;5.70;;;;;;;20.22;69.40;100191.98;107898;1283;21997;-69
2023/05/30 01:43:15;;;;;;;9.70;6.00;;;;;;;20.23;69.41;100193.40;107946;1284;21991;-61
2023/05/30 01:46:10;;;;;;;7.70;6.10;;;;;;;20.24;69.57;100192.11;107791;1284;21992;-61
2023/05/30 01:48:57;;;;;;;8.60;5.90;;;;;;;20.22;69.67;100197.20;107887;1290;21998;-61
2023/05/30 01:51:28;;;;;;;9.10;6.30;;;;;;;20.17;69.60;100198.00;107889;1283;21994;-69
2023/05/30 01:53:58;;;;;;;8.90;6.00;;;;;;;20.11;69.56;100199.35;107892;1287;23847;-69
2023/05/30 01:56:23;;;;;;;10.20;6.50;;;;;;;20.06;69.59;100197.34;107890;1284;22044;-69
2023/05/30 01:58:49;;;;;;;11.00;6.20;;;;;;;20.03;69.95;100197.48;107758;1290;21986;-69
2023/05/30 02:01:15;;;;;;;12.30;5.90;;;;;;;20.00;70.15;100193.56;107901;1290;22042;-61
2023/05/30 02:03:40;;;;;;;7.10;5.10;;;;;;;19.98;69.96;100192.98;107875;1290;21988;-69
2023/05/30 02:06:06;;;;;;;8.10;5.40;;;;;;;19.97;69.93;100197.31;107890;1283;21994;-61
2023/05/30 02:08:32;;;;;;;8.30;5.90;;;;;;;19.97;70.18;100200.17;107864;1290;22001;-61
2023/05/30 02:10:57;;;;;;;8.60;5.10;;;;;;;19.97;70.12;100198.55;107886;1287;22001;-65
2023/05/30 02:13:23;;;;;;;9.70;5.10;;;;;;;19.98;70.20;100205.41;107870;1280;21988;-69
2023/05/30 02:15:48;;;;;;;8.30;5.60;;;;;;;19.99;70.09;100202.36;107936;1288;21984;-70
2023/05/30 02:18:15;;;;;;;16.20;5.70;;;;;;;19.99;70.07;100201.79;107945;1290;21992;-62
2023/05/30 02:20:41;;;;;;;8.90;5.40;;;;;;;20.00;70.18;100201.95;107879;1290;21993;-61
2023/05/30 02:23:06;;;;;;;8.60;6.00;;;;;;;19.99;70.14;100201.96;107908;1289;21990;-70
2023/05/30 02:25:32;;;;;;;9.20;6.00;;;;;;;20.00;69.92;100201.44;107889;1284;21983;-70
2023/05/30 02:27:57;;;;;;;10.20;4.90;;;;;;;20.00;69.85;100196.97;107899;1283;22026;-61
2023/05/30 02:30:23;;;;;;;8.70;5.10;;;;;;;20.00;69.98;100196.95;107868;1284;21997;-71
2023/05/30 02:32:49;;;;;;;9.20;5.50;;;;;;;20.00;70.09;100199.27;107872;1284;21999;-69
2023/05/30 02:35:14;;;;;;;14.60;5.30;;;;;;;20.01;70.06;100204.23;107883;1290;21979;-71
2023/05/30 02:37:40;;;;;;;12.20;5.00;;;;;;;20.02;69.88;100203.29;107958;1290;21996;-63
2023/05/30 02:40:10;;;;;;;10.10;5.10;;;;;;;20.04;69.96;100203.34;107933;1284;21992;-62
2023/05/30 02:42:36;;;;;;;10.50;4.60;;;;;;;20.05;69.83;100198.61;107892;1283;23098;-70
2023/05/30 02:45:03;;;;;;;7.60;4.80;;;;;;;20.06;69.87;100196.27;107872;1287;23609;-70
2023/05/30 02:47:29;;;;;;;7.20;4.60;;;;;;;20.05;69.87;100196.30;108003;1284;21996;-62
2023/05/30 02:49:55;;;;;;;10.40;4.60;;;;;;;20.05;69.97;100197.02;107860;1279;21990;-61
2023/05/30 02:52:21;;;;;;;9.00;4.40;;;;;;;20.07;69.86;100195.14;107892;1283;21985;-72
2023/05/30 02:54:48;;;;;;;11.10;4.40;;;;;;;20.10;69.97;100196.60;107915;1277;22000;-61
2023/05/30 02:57:14;;;;;;;7.20;4.40;;;;;;;20.12;69.89;100194.90;107943;1280;22034;-62
2023/05/30 02:59:40;;;;;;;9.10;4.50;;;;;;;20.13;69.77;100193.72;107848;1281;22000;-61
2023/05/30 03:02:05;;;;;;;5.70;4.10;;;;;;;20.17;69.79;100193.73;107899;1290;21984;-61
2023/05/30 03:04:31;;;;;;;9.70;4.80;;;;;;;20.21;70.10;100192.95;107843;1283;21987;-71
2023/05/30 03:06:57;;;;;;;8.70;4.00;;;;;;;20.24;69.95;100194.94;107839;1283;21979;-71
2023/05/30 03:09:25;;;;;;;7.10;4.60;;;;;;;20.27;69.85;100196.23;107843;1290;21999;-71
2023/05/30 03:11:50;;;;;;;14.10;4.60;;;;;;;20.34;69.84;100199.52;107867;1287;21987;-61
2023/05/30 03:14:16;;;;;;;12.00;4.50;;;;;;;20.40;69.68;100201.01;107917;1289;21986;-71
2023/05/30 03:16:41;;;;;;;7.40;4.10;;;;;;;20.44;69.56;100199.73;107940;1284;23419;-70
2023/05/30 03:19:08;;;;;;;10.70;4.50;;;;;;;20.47;69.64;100202.02;107894;1281;22024;-70
2023/05/30 03:21:36;;;;;;;8.70;4.60;;;;;;;20.50;69.68;100202.58;107893;1280;21990;-61
2023/05/30 03:24:02;;;;;;;6.90;4.60;;;;;;;20.50;69.78;100203.10;107940;1290;22004;-68
2023/05/30 03:26:28;;;;;;;7.50;4.80;;;;;;;20.52;69.91;100198.55;107952;1289;21990;-69
2023/05/30 03:28:54;;;;;;;9.80;4.20;;;;;;;20.54;69.96;100198.63;108018;1284;22028;-69
2023/05/30 03:31:20;;;;;;;11.40;4.60;;;;;;;20.56;70.02;100198.29;107906;1283;21995;-68
2023/05/30 03:33:46;;;;;;;10.00;3.70;;;;;;;20.58;70.09;100196.41;107877;1290;21995;-70
2023/05/30 03:36:12;;;;;;;8.80;3.80;;;;;;;20.62;70.13;100194.22;107929;1280;22021;-61
2023/05/30 03:38:38;;;;;;;8.30;3.90;;;;;;;20.69;70.59;100200.44;107771;1290;22090;-61
2023/05/30 03:41:04;;;;;;;13.60;4.20;;;;;;;20.77;70.73;100198.38;107961;1290;21993;-60
2023/05/30 03:43:30;;;;;;;8.50;4.20;;;;;;;20.85;70.81;100197.75;107872;1283;21996;-71
2023/05/30 03:45:55;;;;;;;5.70;3.90;;;;;;;20.92;70.62;100198.57;107859;1281;21985;-61
2023/05/30 03:48:21;;;;;;;8.50;4.30;;;;;;;21.00;70.35;100198.84;107847;1289;22011;-61
2023/05/30 03:50:47;;;;;;;7.90;4.90;;;;;;;21.08;70.29;100201.40;107897;1290;21993;-60
2023/05/30 03:53:13;;;;;;;9.70;4.20;;;;;;;21.18;70.13;100199.37;107867;1290;21980;-65
2023/05/30 03:55:40;;;;;;;8.50;4.50;;;;;;;21.28;70.13;100199.36;107927;1277;21995;-73
2023/05/30 03:58:05;;;;;;;7.80;4.00;;;;;;;21.35;69.99;100204.45;108010;1284;21998;-71
2023/05/30 04:00:31;;;;;;;6.60;4.10;;;;;;;21.42;70.17;100206.39;107903;1290;22001;-70
2023/05/30 04:03:00;;;;;;;7.40;3.80;;;;;;;21.51;70.20;100208.86;107900;1280;21984;-72
2023/05/30 04:05:26;;;;;;;6.80;4.20;;;;;;;21.61;69.88;100206.31;107900;1290;21989;-72
2023/05/30 04:07:52;;;;;;;7.10;4.40;;;;;;;21.70;69.79;100204.84;107881;1283;21991;-73
2023/05/30 04:10:18;;;;;;;7.80;4.50;;;;;;;21.80;69.87;100206.55;107867;1290;21994;-72
2023/05/30 04:12:44;;;;;;;6.20;3.70;;;;;;;21.91;69.81;100207.53;107877;1277;22012;-61
2023/05/30 04:15:10;;;;;;;7.90;4.30;;;;;;;22.00;69.41;100212.47;107860;1283;21996;-72
2023/05/30 04:17:36;;;;;;;8.20;4.00;;;;;;;22.10;69.05;100214.38;107872;1283;22029;-63
2023/05/30 04:20:04;;;;;;;7.90;4.20;;;;;;;22.20;68.95;100213.23;107904;1290;23635;-72
2023/05/30 04:22:31;;;;;;;7.10;4.20;;;;;;;22.30;69.11;100212.55;107885;1280;22004;-71
2023/05/30 04:24:57;;;;;;;10.90;3.60;;;;;;;22.42;69.05;100215.20;107892;1287;21989;-70
2023/05/30 04:27:24;;;;;;;8.90;4.40;;;;;;;22.57;70.06;100218.59;107884;1290;22033;-72
2023/05/30 04:29:50;;;;;;;6.50;4.50;;;;;;;22.81;70.90;100221.30;107873;1290;21990;-61
2023/05/30 04:32:16;;;;;;;11.10;4.00;;;;;;;23.05;70.61;100220.24;107903;1283;21982;-61
2023/05/30 04:34:43;;;;;;;7.50;3.90;;;;;;;23.28;70.03;100222.31;107976;1283;21984;-62
2023/05/30 04:37:10;;;;;;;9.10;4.00;;;;;;;23.48;69.39;100223.64;107868;1280;21986;-62
2023/05/30 04:39:36;;;;;;;6.90;4.10;;;;;;;23.67;68.65;100223.77;107908;1283;21994;-62
2023/05/30 04:42:04;;;;;;;8.90;4.40;;;;;;;23.83;68.26;100223.73;107779;1287;22467;-73
2023/05/30 04:44:37;;;;;;;6.80;3.50;;;;;;;24.00;67.84;100226.16;107911;1287;21976;-74
2023/05/30 04:47:10;;;;;;;5.50;3.50;;;;;;;24.09;66.22;100223.89;108026;1283;21993;-72
2023/05/30 04:49:39;;;;;;;5.90;3.70;;;;;;;24.14;65.89;100229.61;108090;1283;23599;-73
2023/05/30 04:52:06;;;;;;;7.10;3.60;;;;;;;24.22;66.05;100226.58;108037;1290;22004;-62
2023/05/30 04:54:44;;;;;;;6.30;3.80;;;;;;;24.31;65.61;100232.77;108072;1280;23702;-67
2023/05/30 04:57:10;;;;;;;6.10;3.70;;;;;;;24.37;65.14;100231.58;107935;1289;21992;-74
2023/05/30 04:59:36;;;;;;;5.60;3.90;;;;;;;24.45;65.03;100231.05;107827;1289;22001;-74
2023/05/30 05:02:01;;;;;;;7.80;4.30;;;;;;;24.52;65.34;100235.69;107905;1289;21988;-63
2023/05/30 05:04:27;;;;;;;6.80;4.20;;;;;;;24.67;65.02;100237.64;107905;1286;22006;-63
2023/05/30 05:06:53;;;;;;;9.10;3.60;;;;;;;24.78;64.58;100242.03;107873;1290;22000;-62
2023/05/30 05:09:21;;;;;;;6.40;3.80;;;;;;;24.91;64.76;100242.40;107858;1284;21991;-74
2023/05/30 05:11:46;;;;;;;6.80;4.10;;;;;;;25.07;65.04;100245.35;107866;1283;22007;-64
2023/05/30 05:14:12;;;;;;;8.90;3.80;;;;;;;25.24;65.54;100248.52;107863;1277;21999;-75
2023/05/30 05:16:38;;;;;;;7.00;4.20;;;;;;;25.40;64.95;100251.27;107845;1284;21987;-63
2023/05/30 05:19:03;;;;;;;6.00;4.10;;;;;;;25.55;64.82;100248.02;107858;1290;21999;-64
2023/05/30 05:21:29;;;;;;;7.80;4.10;;;;;;;25.67;64.27;100243.80;107862;1290;21989;-63
2023/05/30 05:23:55;;;;;;;7.30;4.10;;;;;;;25.81;63.55;100242.38;107878;1283;21992;-73
2023/05/30 05:26:20;;;;;;;5.00;3.40;;;;;;;25.94;63.20;100242.78;107819;1290;21983;-72
2023/05/30 05:28:47;;;;;;;6.30;3.80;;;;;;;26.13;63.35;100236.65;107857;1290;21989;-70
2023/05/30 05:31:12;;;;;;;9.50;4.30;;;;;;;26.28;62.95;100239.23;107853;1289;22021;-72
2023/05/30 05:33:38;;;;;;;8.70;3.90;;;;;;;26.42;62.39;100237.56;107866;1283;21993;-62
2023/05/30 05:36:04;;;;;;;9.40;3.40;;;;;;;26.56;62.61;100238.05;107833;1283;21992;-71
2023/05/30 05:38:30;;;;;;;7.80;4.40;;;;;;;26.77;62.66;100235.08;107763;1281;21993;-71
2023/05/30 05:40:56;;;;;;;9.70;4.20;;;;;;;26.99;62.70;100232.81;107882;1290;21992;-62
2023/05/30 05:43:21;;;;;;;6.40;4.70;;;;;;;27.18;62.63;100232.29;107870;1280;21991;-72
2023/05/30 05:45:47;;;;;;;6.90;4.90;;;;;;;27.31;61.39;100231.16;107896;1290;21997;-71
2023/05/30 05:48:13;;;;;;;8.60;5.40;;;;;;;27.39;60.62;100234.48;107928;1290;21992;-67
2023/05/30 05:50:38;;;;;;;5.90;4.90;;;;;;;27.43;59.68;100236.23;107833;1290;21989;-74
2023/05/30 05:53:04;;;;;;;6.60;4.50;;;;;;;27.50;59.32;100237.11;107873;1284;22015;-63
2023/05/30 05:55:30;;;;;;;10.10;5.30;;;;;;;27.64;58.81;100234.16;107859;1280;22026;-63
2023/05/30 05:57:55;;;;;;;5.90;4.50;;;;;;;27.74;58.88;100234.20;107849;1281;21999;-63
2023/05/30 06:00:21;;;;;;;8.20;5.00;;;;;;;27.82;58.82;100233.30;107854;1283;22041;-74
2023/05/30 06:02:47;;;;;;;7.60;4.80;;;;;;;27.93;58.68;100235.27;107972;1290;22006;-73
2023/05/30 06:05:13;;;;;;;9.40;5.50;;;;;;;28.00;58.18;100235.35;107949;1290;21988;-69
2023/05/30 06:07:39;;;;;;;8.90;5.90;;;;;;;28.02;57.86;100237.88;107911;1283;22025;-64
2023/05/30 06:10:06;;;;;;;7.60;5.30;;;;;;;28.08;58.06;100235.38;107865;1290;21986;-71
2023/05/30 06:12:32;;;;;;;7.80;5.60;;;;;;;28.17;57.40;100233.16;107996;1289;22020;-64
2023/05/30 06:14:57;;;;;;;9.10;7.10;;;;;;;28.27;57.14;100231.73;107878;1280;22740;-70
2023/05/30 06:17:23;;;;;;;10.00;6.60;;;;;;;28.39;57.55;100233.02;107870;1286;21994;-72
2023/05/30 06:19:50;;;;;;;9.10;6.20;;;;;;;28.52;57.78;100232.19;107851;1284;22006;-67
2023/05/30 06:22:16;;;;;;;17.70;7.20;;;;;;;28.72;57.35;100232.06;107973;1284;24295;-71
2023/05/30 06:24:42;;;;;;;11.40;8.20;;;;;;;28.96;57.47;100230.05;107934;1290;22466;-64
2023/05/30 06:27:08;;;;;;;10.00;6.70;;;;;;;29.17;56.29;100231.78;107843;1280;21985;-66
2023/05/30 06:29:34;;;;;;;15.20;10.50;;;;;;;29.43;57.16;100232.05;107893;1281;21994;-65
2023/05/30 06:32:00;;;;;;;16.20;9.20;;;;;;;29.64;55.95;100227.70;107889;1284;22010;-73
2023/05/30 06:34:26;;;;;;;17.80;11.30;;;;;;;29.73;54.26;100229.27;107891;1280;21992;-65
2023/05/30 06:36:52;;;;;;;10.30;9.10;;;;;;;29.81;52.89;100228.09;107908;1280;22005;-63
2023/05/30 06:39:17;;;;;;;14.60;11.00;;;;;;;30.01;54.48;100226.17;107946;1287;21992;-73
2023/05/30 06:41:44;;;;;;;16.80;10.70;;;;;;;30.20;52.71;100224.76;107869;1280;23780;-64
2023/05/30 06:44:10;;;;;;;22.50;13.90;;;;;;;30.34;52.98;100220.08;108020;1283;21986;-64
2023/05/30 06:46:36;;;;;;;22.50;16.20;;;;;;;30.46;52.97;100221.27;107898;1278;21986;-64
2023/05/30 06:49:02;;;;;;;47.20;22.40;;;;;;;30.59;53.54;100223.11;107852;1289;22014;-73
2023/05/30 06:51:28;;;;;;;43.20;22.70;;;;;;;30.66;51.66;100225.10;107894;1287;23606;-66
2023/05/30 06:53:53;;;;;;;59.40;30.10;;;;;;;30.65;50.18;100227.60;107898;1281;21992;-65
2023/05/30 06:56:20;;;;;;;43.70;25.20;;;;;;;30.58;50.75;100229.33;107858;1284;21987;-66
2023/05/30 06:58:46;;;;;;;41.00;26.60;;;;;;;30.58;51.04;100230.27;107856;1290;22010;-71
2023/05/30 07:01:12;;;;;;;45.40;23.90;;;;;;;30.66;50.67;100231.84;107906;1280;22456;-72
2023/05/30 07:03:37;;;;;;;38.40;21.40;;;;;;;30.75;50.91;100231.66;107913;1280;21987;-72
2023/05/30 07:06:03;;;;;;;42.60;25.90;;;;;;;30.68;49.70;100226.95;107983;1290;21957;-65
2023/05/30 07:08:29;;;;;;;21.20;12.90;;;;;;;30.56;49.13;100225.45;108020;1290;21984;-74
2023/05/30 07:10:55;;;;;;;45.40;26.00;;;;;;;30.37;47.49;100220.91;107924;1290;22001;-65
2023/05/30 07:13:20;;;;;;;38.30;20.70;;;;;;;30.21;49.51;100221.59;107964;1290;21992;-72
2023/05/30 07:15:47;;;;;;;38.10;19.80;;;;;;;30.14;49.85;100223.46;107917;1290;21996;-72
2023/05/30 07:18:13;;;;;;;37.40;19.90;;;;;;;30.07;49.35;100223.84;107923;1290;21987;-73
2023/05/30 07:20:38;;;;;;;15.50;11.90;;;;;;;30.00;49.49;100226.52;107830;1281;22009;-74
2023/05/30 07:23:04;;;;;;;34.60;21.50;;;;;;;29.92;48.51;100223.60;107847;1290;21999;-74
2023/05/30 07:25:30;;;;;;;52.70;27.20;;;;;;;29.85;48.74;100225.88;107859;1283;21990;-65
2023/05/30 07:27:56;;;;;;;56.80;28.00;;;;;;;29.79;48.36;100227.19;107842;1280;21990;-73
2023/05/30 07:30:21;;;;;;;29.70;17.10;;;;;;;29.78;48.36;100229.64;107830;1287;22000;-73
2023/05/30 07:32:47;;;;;;;56.40;21.80;;;;;;;29.79;48.58;100232.13;107856;1283;23673;-65
2023/05/30 07:35:13;;;;;;;25.30;19.20;;;;;;;29.87;48.85;100230.20;107867;1290;21975;-70
2023/05/30 07:37:39;;;;;;;39.80;21.80;;;;;;;29.94;48.40;100228.91;107828;1289;21964;-66
2023/05/30 07:40:05;;;;;;;35.80;20.30;;;;;;;30.07;49.20;100226.67;107877;1284;22032;-73
2023/05/30 07:42:32;;;;;;;44.90;20.40;;;;;;;30.14;47.36;100227.50;107820;1289;21992;-66
2023/05/30 07:44:58;;;;;;;36.00;21.00;;;;;;;30.15;47.91;100232.64;107855;1290;21993;-65
2023/05/30 07:47:23;;;;;;;29.80;21.50;;;;;;;30.11;47.56;100233.92;107871;1284;21958;-74
2023/05/30 07:49:49;;;;;;;34.80;21.10;;;;;;;30.08;47.68;100231.45;107862;1284;22000;-71
2023/05/30 07:52:16;;;;;;;30.80;21.60;;;;;;;30.11;47.48;100233.92;107924;1290;21995;-65
2023/05/30 07:54:41;;;;;;;22.30;18.40;;;;;;;30.10;48.00;100234.84;107871;1277;21983;-72
2023/05/30 07:57:07;;;;;;;39.60;21.20;;;;;;;30.09;47.98;100236.65;107845;1290;21987;-72
2023/05/30 07:59:33;;;;;;;36.80;20.70;;;;;;;30.11;48.71;100235.00;107951;1284;22037;-66
2023/05/30 08:01:59;;;;;;;39.50;23.30;;;;;;;30.06;47.10;100234.02;107922;1284;21990;-67
2023/05/30 08:04:25;;;;;;;29.90;18.60;;;;;;;29.97;47.58;100229.09;107883;1287;22025;-72
2023/05/30 08:06:50;;;;;;;25.70;19.20;;;;;;;29.90;48.17;100224.31;107871;1284;21997;-66
2023/05/30 08:09:16;;;;;;;39.10;22.80;;;;;;;29.85;47.19;100225.33;107835;1290;22029;-71
2023/05/30 08:11:42;;;;;;;27.70;18.10;;;;;;;29.80;47.79;100226.59;107829;1290;21990;-73
2023/05/30 08:14:08;;;;;;;42.20;21.70;;;;;;;29.78;48.22;100230.70;107820;1280;21997;-72
2023/05/30 08:16:34;;;;;;;39.50;22.40;;;;;;;29.82;48.29;100232.88;107826;1290;22002;-74
2023/05/30 08:19:00;;;;;;;35.30;22.90;;;;;;;29.86;47.16;100237.06;107832;1283;21992;-65
2023/05/30 08:21:26;;;;;;;35.40;25.30;;;;;;;29.85;47.40;100235.66;107801;1283;23071;-74
2023/05/30 08:23:52;;;;;;;42.20;22.10;;;;;;;29.85;47.55;100238.38;107844;1281;23589;-72
2023/05/30 08:26:18;;;;;;;37.40;23.80;;;;;;;29.82;46.68;100233.93;107854;1284;21992;-65
2023/05/30 08:28:43;;;;;;;38.00;23.90;;;;;;;29.79;46.50;100230.61;107791;1290;21993;-66
2023/05/30 08:31:09;;;;;;;34.80;21.90;;;;;;;29.83;46.80;100234.41;107853;1290;21998;-67
2023/05/30 08:33:35;;;;;;;34.70;21.90;;;;;;;29.92;46.96;100234.30;107904;1290;22027;-65
2023/05/30 08:36:01;;;;;;;23.70;18.20;;;;;;;30.00;46.84;100231.55;107815;1284;21988;-73
2023/05/30 08:38:28;;;;;;;40.80;22.20;;;;;;;30.08;46.19;100232.06;107855;1287;23695;-72
2023/05/30 08:40:53;;;;;;;37.00;24.70;;;;;;;30.19;46.25;100225.41;107750;1290;21990;-70
2023/05/30 08:43:19;;;;;;;47.10;27.10;;;;;;;30.46;47.15;100228.14;107805;1289;21984;-66
2023/05/30 08:45:45;;;;;;;45.80;27.70;;;;;;;30.80;46.29;100225.94;107843;1280;21979;-71
2023/05/30 08:48:11;;;;;;;70.20;33.50;;;;;;;31.07;45.52;100223.98;108035;1284;21989;-69
2023/05/30 08:50:37;;;;;;;90.80;43.80;;;;;;;31.28;45.12;100219.50;107897;1290;21990;-65
2023/05/30 08:53:07;;;;;;;82.90;43.90;;;;;;;31.35;43.63;100220.20;107832;1280;22008;-70
2023/05/30 08:55:42;;;;;;;74.80;41.40;;;;;;;31.38;42.65;100218.67;107863;1286;22056;-65
2023/05/30 08:58:18;;;;;;;87.20;41.00;;;;;;;31.42;43.05;100218.27;107809;1290;21987;-68
2023/05/30 09:00:44;;;;;;;85.70;47.10;;;;;;;31.41;40.97;100214.90;107853;1290;21997;-64
2023/05/30 09:03:10;;;;;;;87.10;42.50;;;;;;;31.42;42.00;100212.77;107806;1280;21979;-64
2023/05/30 09:05:36;;;;;;;100.50;52.00;;;;;;;31.47;42.35;100209.16;107767;1290;21997;-73
2023/05/30 09:08:02;;;;;;;44.80;27.20;;;;;;;31.58;41.72;100208.59;107797;1290;22027;-71
2023/05/30 09:10:28;;;;;;;116.20;59.50;;;;;;;31.73;43.03;100209.41;107876;1289;21953;-70
2023/05/30 09:12:55;;;;;;;111.30;57.80;;;;;;;31.90;42.50;100212.38;107825;1290;22029;-69
2023/05/30 09:15:21;;;;;;;121.90;59.30;;;;;;;32.05;42.74;100213.72;107835;1280;21995;-70
2023/05/30 09:17:46;;;;;;;124.40;57.00;;;;;;;32.17;42.81;100214.05;107788;1290;21994;-64
2023/05/30 09:20:16;;;;;;;122.20;57.00;;;;;;;32.32;42.46;100211.30;107840;1283;21987;-70
2023/05/30 09:22:44;;;;;;;100.40;52.50;;;;;;;32.39;41.80;100211.22;107894;1290;21990;-71
2023/05/30 09:25:12;;;;;;;73.90;46.40;;;;;;;32.37;41.14;100210.90;107862;1290;22024;-71
2023/05/30 09:27:38;;;;;;;159.80;74.60;;;;;;;32.19;39.66;100212.09;107879;1281;21979;-71
2023/05/30 09:30:07;;;;;;;146.20;62.20;;;;;;;32.04;40.33;100216.01;107813;1284;22026;-65
2023/05/30 09:32:38;;;;;;;;;;;;;;;31.98;40.67;100214.48;107844;1284;21971;-64
2023/05/30 09:35:10;;;;;;;109.70;60.70;;;;;;;31.91;41.03;100216.48;107840;1280;21999;-65
2023/05/30 09:37:37;;;;;;;112.40;55.90;;;;;;;31.93;41.10;100215.00;107862;1283;21992;-65
2023/05/30 09:40:07;;;;;;;156.80;67.60;;;;;;;32.03;40.67;100215.41;107905;1290;22027;-64
2023/05/30 09:42:48;;;;;;;169.60;86.00;;;;;;;32.14;40.42;100215.46;107906;1290;21990;-64
2023/05/30 09:45:16;;;;;;;118.60;61.40;;;;;;;32.23;41.02;100213.26;107839;1284;22007;-72
2023/05/30 09:47:44;;;;;;;185.20;87.80;;;;;;;32.38;40.08;100212.82;107866;1284;22004;-71
2023/05/30 09:50:12;;;;;;;193.30;92.10;;;;;;;32.51;40.34;100211.08;107904;1290;21987;-72
2023/05/30 09:52:38;;;;;;;152.30;78.80;;;;;;;32.67;39.97;100214.55;107951;1290;21997;-66
2023/05/30 09:55:05;;;;;;;174.50;86.90;;;;;;;32.78;39.22;100205.16;107982;1277;22009;-66
2023/05/30 09:57:33;;;;;;;253.80;112.30;;;;;;;32.81;39.04;100207.59;107994;1281;23702;-73
2023/05/30 09:59:59;;;;;;;142.40;68.50;;;;;;;32.77;38.02;100209.15;107934;1290;21987;-65
2023/05/30 10:02:24;;;;;;;153.00;78.00;;;;;;;32.69;38.77;100210.40;107900;1284;21999;-65
2023/05/30 10:04:53;;;;;;;189.80;87.50;;;;;;;32.70;38.79;100209.20;107866;1290;22021;-71
2023/05/30 10:07:22;;;;;;;229.00;96.90;;;;;;;32.74;38.44;100208.52;107822;1286;22016;-65
2023/05/30 10:09:50;;;;;;;280.30;131.20;;;;;;;32.66;38.27;100207.46;107877;1290;21998;-71
2023/05/30 10:12:16;;;;;;;170.50;81.30;;;;;;;32.62;38.22;100205.36;107871;1290;21997;-65
2023/05/30 10:14:43;;;;;;;303.10;128.00;;;;;;;32.57;37.42;100200.60;107963;1289;22031;-65
2023/05/30 10:17:09;;;;;;;214.80;102.20;;;;;;;32.49;37.31;100202.94;107873;1290;21991;-66
2023/05/30 10:19:57;;;;;;;263.60;113.60;;;;;;;32.40;37.90;100201.86;107971;1280;22048;-68
2023/05/30 10:22:23;;;;;;;256.10;114.90;;;;;;;32.27;37.07;100200.85;107945;1287;21993;-71
2023/05/30 10:24:50;;;;;;;220.90;98.30;;;;;;;32.17;37.40;100199.55;108025;1279;24320;-72
2023/05/30 10:27:18;;;;;;;173.50;85.40;;;;;;;32.15;38.21;100196.27;107985;1283;21995;-70
2023/05/30 12:23:55;;;;;;;558.70;264.00;;;;;;;33.59;41.57;100159.48;108268;1278;550529;-65
2023/05/30 12:26:24;;;;;;;507.40;240.20;;;;;;;36.11;35.62;100149.73;108512;1280;23633;-66
2023/05/30 12:28:50;;;;;;;567.30;254.80;;;;;;;36.65;34.95;100149.36;108475;1282;21977;-65
2023/05/30 12:31:22;;;;;;;570.90;277.40;;;;;;;37.01;33.07;100148.14;108438;1282;21980;-66
2023/05/30 12:33:48;;;;;;;517.40;258.40;;;;;;;37.19;33.16;100147.90;108292;1282;21977;-66
2023/05/30 12:36:13;;;;;;;589.30;284.90;;;;;;;37.46;33.89;100140.36;108350;1276;147335;-66
2023/05/30 12:38:39;;;;;;;707.60;345.80;;;;;;;37.69;34.06;100139.10;108447;1279;21979;-65
2023/05/30 12:41:05;;;;;;;799.60;390.20;;;;;;;37.85;33.60;100140.10;108493;1279;21996;-65
2023/05/30 12:43:31;;;;;;;703.40;364.60;;;;;;;37.91;32.25;100135.92;108472;1278;21987;-66
2023/05/30 12:46:05;;;;;;;737.30;371.60;;;;;;;37.87;32.68;100138.59;108490;1270;21978;-65
2023/05/30 12:48:31;;;;;;;741.30;366.90;;;;;;;37.79;32.09;100141.02;108494;1278;21983;-65
2023/05/30 12:50:58;;;;;;;700.00;336.30;;;;;;;37.53;31.78;100142.90;108469;1267;21978;-66
2023/05/30 12:53:24;;;;;;;662.50;340.60;;;;;;;37.21;32.05;100148.70;108562;1279;21974;-66
2023/05/30 12:55:49;;;;;;;656.50;316.70;;;;;;;37.08;33.10;100149.30;108490;1273;21990;-66
2023/05/30 12:58:16;;;;;;;668.50;338.40;;;;;;;37.12;33.23;100148.98;108484;1279;22259;-68
2023/05/30 13:00:41;;;;;;;683.10;340.30;;;;;;;37.13;32.29;100150.30;108480;1279;21978;-67